PWSweather.com
Personal Weather Stations
Station Observations
CALONGE
CalongeES 17251

CalongeES 17251

Lat: 41.85972222, Lon: 3.077777778

Elevation: 16

Station Type: Oregon WMR928N

www.calonge-meteoweb.com

High Low Average
Temperature 80.4°F26.9°C 57.9°F14.4°C 67.9°F19.9°C
Dew Point 63.9°F17.7°C 44.5°F6.9°C 52.8°F11.6°C
Winds 13.8 mph 22.2 kmh Calm Calm 5.0 mph ESE8.0 kmh ESE
Wind Gusts 27.5 mph44.3 kmh -- 9.0 mph14.5 kmh
Humidity 94% 33% 62%
Pressure 30.12 in1020.0 mb 29.83 in1010.2 mb -
Precipitation 0.00 in0.0 mm - -
Hour Temp Dew Point Humidity Winds Wind Gusts Pressure Precip Precip Rate Daily Precip Total
12:00 AM 58.3°F14.6°C 53.1°F11.7°C 83% Calm Calm -- 29.89 in1012.2 mb 0.00 in0.0 mm 0.00 in0.0 mm 0.00 in0.0 mm
12:15 AM 58.5°F14.7°C 53.6°F12.0°C 84% Calm Calm -- 29.89 in1012.2 mb 0.00 in0.0 mm 0.00 in0.0 mm 0.00 in0.0 mm
12:30 AM 58.8°F14.9°C 54.0°F12.2°C 84% Calm Calm -- 29.89 in1012.2 mb 0.00 in0.0 mm 0.00 in0.0 mm 0.00 in0.0 mm
12:45 AM 59.4°F15.2°C 54.5°F12.5°C 84% Calm Calm -- 29.89 in1012.2 mb 0.00 in0.0 mm 0.00 in0.0 mm 0.00 in0.0 mm
01:00 AM 59.9°F15.5°C 55.1°F12.8°C 84% Calm Calm -- 29.89 in1012.2 mb 0.00 in0.0 mm 0.00 in0.0 mm 0.00 in0.0 mm
01:15 AM 59.9°F15.5°C 54.7°F12.6°C 83% Calm Calm -- 29.86 in1011.2 mb 0.00 in0.0 mm 0.00 in0.0 mm 0.00 in0.0 mm
01:30 AM 59.5°F15.3°C 54.4°F12.4°C 83% Calm Calm -- 29.86 in1011.2 mb 0.00 in0.0 mm 0.00 in0.0 mm 0.00 in0.0 mm
01:45 AM 59.2°F15.1°C 54.0°F12.2°C 83% Calm Calm -- 29.86 in1011.2 mb 0.00 in0.0 mm 0.00 in0.0 mm 0.00 in0.0 mm
02:00 AM 59.0°F15.0°C 54.2°F12.3°C 84% Calm Calm -- 29.86 in1011.2 mb 0.00 in0.0 mm 0.00 in0.0 mm 0.00 in0.0 mm
02:15 AM 58.6°F14.8°C 54.1°F12.3°C 85% Calm Calm -- 29.86 in1011.2 mb 0.00 in0.0 mm 0.00 in0.0 mm 0.00 in0.0 mm
02:30 AM 58.3°F14.6°C 54.1°F12.3°C 86% Calm Calm -- 29.86 in1011.2 mb 0.00 in0.0 mm 0.00 in0.0 mm 0.00 in0.0 mm
02:45 AM 58.3°F14.6°C 54.7°F12.6°C 88% Calm Calm -- 29.86 in1011.2 mb 0.00 in0.0 mm 0.00 in0.0 mm 0.00 in0.0 mm
03:00 AM 58.1°F14.5°C 54.9°F12.7°C 89% Calm Calm -- 29.86 in1011.2 mb 0.00 in0.0 mm 0.00 in0.0 mm 0.00 in0.0 mm
03:15 AM 57.9°F14.4°C 54.7°F12.6°C 89% Calm Calm -- 29.86 in1011.2 mb 0.00 in0.0 mm 0.00 in0.0 mm 0.00 in0.0 mm
03:30 AM 57.9°F14.4°C 55.0°F12.8°C 90% Calm Calm -- 29.86 in1011.2 mb 0.00 in0.0 mm 0.00 in0.0 mm 0.00 in0.0 mm
03:45 AM 58.3°F14.6°C 55.7°F13.2°C 91% Calm Calm -- 29.86 in1011.2 mb 0.00 in0.0 mm 0.00 in0.0 mm 0.00 in0.0 mm
04:00 AM 58.6°F14.8°C 56.0°F13.3°C 91% Calm Calm -- 29.86 in1011.2 mb 0.00 in0.0 mm 0.00 in0.0 mm 0.00 in0.0 mm
04:15 AM 58.6°F14.8°C 55.7°F13.2°C 90% Calm Calm -- 29.86 in1011.2 mb 0.00 in0.0 mm 0.00 in0.0 mm 0.00 in0.0 mm
04:30 AM 58.6°F14.8°C 56.0°F13.3°C 91% Calm Calm -- 29.86 in1011.2 mb 0.00 in0.0 mm 0.00 in0.0 mm 0.00 in0.0 mm
04:45 AM 58.8°F14.9°C 55.9°F13.3°C 90% Calm Calm -- 29.86 in1011.2 mb 0.00 in0.0 mm 0.00 in0.0 mm 0.00 in0.0 mm
05:00 AM 58.6°F14.8°C 55.7°F13.2°C 90% Calm Calm -- 29.86 in1011.2 mb 0.00 in0.0 mm 0.00 in0.0 mm 0.00 in0.0 mm
05:15 AM 58.6°F14.8°C 55.7°F13.2°C 90% Calm Calm -- 29.86 in1011.2 mb 0.00 in0.0 mm 0.00 in0.0 mm 0.00 in0.0 mm
05:30 AM 58.8°F14.9°C 56.2°F13.4°C 91% Calm Calm -- 29.83 in1010.2 mb 0.00 in0.0 mm 0.00 in0.0 mm 0.00 in0.0 mm
05:45 AM 58.8°F14.9°C 55.9°F13.3°C 90% Calm Calm -- 29.83 in1010.2 mb 0.00 in0.0 mm 0.00 in0.0 mm 0.00 in0.0 mm
06:00 AM 59.4°F15.2°C 56.4°F13.6°C 90% Calm Calm -- 29.83 in1010.2 mb 0.00 in0.0 mm 0.00 in0.0 mm 0.00 in0.0 mm
06:15 AM 59.5°F15.3°C 56.9°F13.8°C 91% Calm Calm -- 29.83 in1010.2 mb 0.00 in0.0 mm 0.00 in0.0 mm 0.00 in0.0 mm
06:30 AM 60.1°F15.6°C 57.4°F14.1°C 91% Calm Calm -- 29.83 in1010.2 mb 0.00 in0.0 mm 0.00 in0.0 mm 0.00 in0.0 mm
06:45 AM 60.4°F15.8°C 57.8°F14.3°C 91% Calm Calm -- 29.83 in1010.2 mb 0.00 in0.0 mm 0.00 in0.0 mm 0.00 in0.0 mm
07:00 AM 61.2°F16.2°C 58.5°F14.7°C 91% Calm Calm -- 29.83 in1010.2 mb 0.00 in0.0 mm 0.00 in0.0 mm 0.00 in0.0 mm
07:15 AM 62.1°F16.7°C 59.4°F15.2°C 91% 8.8 mph SE14.2 kmh SE 10.0 mph16.1 kmh 29.83 in1010.2 mb 0.00 in0.0 mm 0.00 in0.0 mm 0.00 in0.0 mm
07:30 AM 64.8°F18.2°C 63.0°F17.2°C 94% 5.3 mph S8.5 kmh S 10.5 mph16.9 kmh 29.83 in1010.2 mb 0.00 in0.0 mm 0.00 in0.0 mm 0.00 in0.0 mm
07:45 AM 66.0°F18.9°C 63.9°F17.7°C 93% 4.7 mph SSE7.6 kmh SSE 10.8 mph17.4 kmh 29.83 in1010.2 mb 0.00 in0.0 mm 0.00 in0.0 mm 0.00 in0.0 mm
08:00 AM 67.1°F19.5°C 63.4°F17.4°C 88% 8.8 mph S14.2 kmh S 10.5 mph16.9 kmh 29.83 in1010.2 mb 0.00 in0.0 mm 0.00 in0.0 mm 0.00 in0.0 mm
08:15 AM 68.0°F20.0°C 63.0°F17.2°C 84% 7.6 mph S12.2 kmh S 13.8 mph22.2 kmh 29.86 in1011.2 mb 0.00 in0.0 mm 0.00 in0.0 mm 0.00 in0.0 mm
08:30 AM 68.9°F20.5°C 62.1°F16.7°C 79% 2.9 mph SSW4.7 kmh SSW 11.4 mph18.3 kmh 29.86 in1011.2 mb 0.00 in0.0 mm 0.00 in0.0 mm 0.00 in0.0 mm
08:45 AM 69.6°F20.9°C 59.4°F15.2°C 70% 7.6 mph SW12.2 kmh SW 11.4 mph18.3 kmh 29.86 in1011.2 mb 0.00 in0.0 mm 0.00 in0.0 mm 0.00 in0.0 mm
09:00 AM 70.0°F21.1°C 59.7°F15.4°C 70% 5.9 mph S9.5 kmh S 14.4 mph23.2 kmh 29.86 in1011.2 mb 0.00 in0.0 mm 0.00 in0.0 mm 0.00 in0.0 mm
09:15 AM 71.1°F21.7°C 58.7°F14.8°C 65% 9.4 mph SSW15.1 kmh SSW 13.8 mph22.2 kmh 29.86 in1011.2 mb 0.00 in0.0 mm 0.00 in0.0 mm 0.00 in0.0 mm
09:30 AM 72.3°F22.4°C 57.2°F14.0°C 59% 8.2 mph SSW13.2 kmh SSW 17.3 mph27.8 kmh 29.83 in1010.2 mb 0.00 in0.0 mm 0.00 in0.0 mm 0.00 in0.0 mm
09:45 AM 72.7°F22.6°C 56.6°F13.7°C 57% 7.6 mph SSW12.2 kmh SSW 22.0 mph35.4 kmh 29.83 in1010.2 mb 0.00 in0.0 mm 0.00 in0.0 mm 0.00 in0.0 mm
10:00 AM 73.4°F23.0°C 55.7°F13.2°C 54% 3.5 mph SSW5.6 kmh SSW 11.4 mph18.3 kmh 29.83 in1010.2 mb 0.00 in0.0 mm 0.00 in0.0 mm 0.00 in0.0 mm
10:15 AM 73.4°F23.0°C 55.7°F13.2°C 54% 11.4 mph S18.3 kmh S 14.9 mph24.0 kmh 29.83 in1010.2 mb 0.00 in0.0 mm 0.00 in0.0 mm 0.00 in0.0 mm
10:30 AM 73.8°F23.2°C 52.8°F11.6°C 48% 10.0 mph S16.1 kmh S 16.7 mph26.9 kmh 29.83 in1010.2 mb 0.00 in0.0 mm 0.00 in0.0 mm 0.00 in0.0 mm
10:45 AM 74.5°F23.6°C 51.7°F10.9°C 45% 10.5 mph SSW16.9 kmh SSW 20.2 mph32.5 kmh 29.86 in1011.2 mb 0.00 in0.0 mm 0.00 in0.0 mm 0.00 in0.0 mm
11:00 AM 75.2°F24.0°C 53.0°F11.7°C 46% 10.5 mph S16.9 kmh S 16.7 mph26.9 kmh 29.86 in1011.2 mb 0.00 in0.0 mm 0.00 in0.0 mm 0.00 in0.0 mm
11:15 AM 75.4°F24.1°C 52.6°F11.4°C 45% 11.4 mph SSW18.3 kmh SSW 22.9 mph36.9 kmh 29.86 in1011.2 mb 0.00 in0.0 mm 0.00 in0.0 mm 0.00 in0.0 mm
11:30 AM 75.4°F24.1°C 51.9°F11.1°C 44% 5.9 mph SW9.5 kmh SW 17.3 mph27.8 kmh 29.86 in1011.2 mb 0.00 in0.0 mm 0.00 in0.0 mm 0.00 in0.0 mm
11:45 AM 75.9°F24.4°C 51.2°F10.7°C 42% 10.5 mph S16.9 kmh S 22.0 mph35.4 kmh 29.86 in1011.2 mb 0.00 in0.0 mm 0.00 in0.0 mm 0.00 in0.0 mm
12:00 PM 76.1°F24.5°C 52.6°F11.4°C 44% 13.8 mph SSW22.2 kmh SSW 19.0 mph30.6 kmh 29.86 in1011.2 mb 0.00 in0.0 mm 0.00 in0.0 mm 0.00 in0.0 mm
12:15 PM 76.3°F24.6°C 55.1°F12.8°C 48% 9.4 mph SSW15.1 kmh SSW 17.3 mph27.8 kmh 29.86 in1011.2 mb 0.00 in0.0 mm 0.00 in0.0 mm 0.00 in0.0 mm
12:30 PM 75.7°F24.3°C 54.1°F12.3°C 47% 12.0 mph S19.3 kmh S 19.6 mph31.5 kmh 29.86 in1011.2 mb 0.00 in0.0 mm 0.00 in0.0 mm 0.00 in0.0 mm
12:45 PM 76.1°F24.5°C 53.2°F11.8°C 45% 10.8 mph SSW17.4 kmh SSW 19.0 mph30.6 kmh 29.86 in1011.2 mb 0.00 in0.0 mm 0.00 in0.0 mm 0.00 in0.0 mm
01:00 PM 75.7°F24.3°C 54.1°F12.3°C 47% 8.2 mph SW13.2 kmh SW 22.0 mph35.4 kmh 29.86 in1011.2 mb 0.00 in0.0 mm 0.00 in0.0 mm 0.00 in0.0 mm
01:15 PM 76.1°F24.5°C 53.8°F12.1°C 46% 10.5 mph SSW16.9 kmh SSW 20.8 mph33.5 kmh 29.86 in1011.2 mb 0.00 in0.0 mm 0.00 in0.0 mm 0.00 in0.0 mm
01:30 PM 76.3°F24.6°C 53.4°F11.9°C 45% 12.0 mph SSW19.3 kmh SSW 16.7 mph26.9 kmh 29.86 in1011.2 mb 0.00 in0.0 mm 0.00 in0.0 mm 0.00 in0.0 mm
01:45 PM 77.4°F25.2°C 53.1°F11.7°C 43% 7.6 mph S12.2 kmh S 16.1 mph25.9 kmh 29.86 in1011.2 mb 0.00 in0.0 mm 0.00 in0.0 mm 0.00 in0.0 mm
02:00 PM 77.9°F25.5°C 53.0°F11.7°C 42% 8.2 mph SSW13.2 kmh SSW 17.3 mph27.8 kmh 29.86 in1011.2 mb 0.00 in0.0 mm 0.00 in0.0 mm 0.00 in0.0 mm
02:15 PM 79.5°F26.4°C 53.8°F12.1°C 41% 7.0 mph SW11.3 kmh SW 13.8 mph22.2 kmh 29.86 in1011.2 mb 0.00 in0.0 mm 0.00 in0.0 mm 0.00 in0.0 mm
02:30 PM 79.5°F26.4°C 51.7°F10.9°C 38% 8.2 mph SSW13.2 kmh SSW 19.6 mph31.5 kmh 29.86 in1011.2 mb 0.00 in0.0 mm 0.00 in0.0 mm 0.00 in0.0 mm
02:45 PM 79.3°F26.3°C 52.2°F11.2°C 39% 11.4 mph S18.3 kmh S 19.6 mph31.5 kmh 29.86 in1011.2 mb 0.00 in0.0 mm 0.00 in0.0 mm 0.00 in0.0 mm
03:00 PM 79.5°F26.4°C 53.1°F11.7°C 40% 5.9 mph SSW9.5 kmh SSW 17.3 mph27.8 kmh 29.89 in1012.2 mb 0.00 in0.0 mm 0.00 in0.0 mm 0.00 in0.0 mm
03:15 PM 79.7°F26.5°C 53.2°F11.8°C 40% 9.4 mph S15.1 kmh S 16.1 mph25.9 kmh 29.89 in1012.2 mb 0.00 in0.0 mm 0.00 in0.0 mm 0.00 in0.0 mm
03:30 PM 80.4°F26.9°C 53.9°F12.2°C 40% 5.3 mph SSW8.5 kmh SSW 14.4 mph23.2 kmh 29.89 in1012.2 mb 0.00 in0.0 mm 0.00 in0.0 mm 0.00 in0.0 mm
03:45 PM 80.4°F26.9°C 53.2°F11.8°C 39% 11.4 mph S18.3 kmh S 17.9 mph28.8 kmh 29.89 in1012.2 mb 0.00 in0.0 mm 0.00 in0.0 mm 0.00 in0.0 mm
04:00 PM 79.5°F26.4°C 53.1°F11.7°C 40% 7.6 mph SSW12.2 kmh SSW 16.7 mph26.9 kmh 29.89 in1012.2 mb 0.00 in0.0 mm 0.00 in0.0 mm 0.00 in0.0 mm
04:15 PM 79.5°F26.4°C 53.1°F11.7°C 40% 8.8 mph S14.2 kmh S 19.0 mph30.6 kmh 29.89 in1012.2 mb 0.00 in0.0 mm 0.00 in0.0 mm 0.00 in0.0 mm
04:30 PM 79.3°F26.3°C 53.6°F12.0°C 41% 8.8 mph S14.2 kmh S 17.3 mph27.8 kmh 29.89 in1012.2 mb 0.00 in0.0 mm 0.00 in0.0 mm 0.00 in0.0 mm
04:45 PM 79.5°F26.4°C 53.1°F11.7°C 40% 9.4 mph S15.1 kmh S 16.7 mph26.9 kmh 29.89 in1012.2 mb 0.00 in0.0 mm 0.00 in0.0 mm 0.00 in0.0 mm
05:00 PM 79.7°F26.5°C 49.6°F9.8°C 35% 8.8 mph SE14.2 kmh SE 13.2 mph21.2 kmh 29.89 in1012.2 mb 0.00 in0.0 mm 0.00 in0.0 mm 0.00 in0.0 mm
05:15 PM 76.5°F24.7°C 45.2°F7.3°C 33% 10.5 mph NE16.9 kmh NE 27.5 mph44.3 kmh 29.92 in1013.2 mb 0.00 in0.0 mm 0.00 in0.0 mm 0.00 in0.0 mm
05:30 PM 74.5°F23.6°C 49.2°F9.6°C 41% 8.8 mph ENE14.2 kmh ENE 24.6 mph39.6 kmh 29.95 in1014.2 mb 0.00 in0.0 mm 0.00 in0.0 mm 0.00 in0.0 mm
05:45 PM 72.3°F22.4°C 47.3°F8.5°C 41% 11.4 mph E18.3 kmh E 16.7 mph26.9 kmh 29.98 in1015.2 mb 0.00 in0.0 mm 0.00 in0.0 mm 0.00 in0.0 mm
06:00 PM 72.0°F22.2°C 47.6°F8.7°C 42% 10.5 mph ENE16.9 kmh ENE 17.3 mph27.8 kmh 29.98 in1015.2 mb 0.00 in0.0 mm 0.00 in0.0 mm 0.00 in0.0 mm
06:15 PM 71.6°F22.0°C 47.3°F8.5°C 42% 8.2 mph ENE13.2 kmh ENE 14.4 mph23.2 kmh 29.98 in1015.2 mb 0.00 in0.0 mm 0.00 in0.0 mm 0.00 in0.0 mm
06:30 PM 71.8°F22.1°C 48.1°F8.9°C 43% 7.0 mph ENE11.3 kmh ENE 11.4 mph18.3 kmh 29.98 in1015.2 mb 0.00 in0.0 mm 0.00 in0.0 mm 0.00 in0.0 mm
06:45 PM 71.1°F21.7°C 47.4°F8.6°C 43% 5.9 mph NE9.5 kmh NE 13.8 mph22.2 kmh 30.01 in1016.3 mb 0.00 in0.0 mm 0.00 in0.0 mm 0.00 in0.0 mm
07:00 PM 70.9°F21.6°C 48.5°F9.2°C 45% 8.8 mph NE14.2 kmh NE 10.8 mph17.4 kmh 30.01 in1016.3 mb 0.00 in0.0 mm 0.00 in0.0 mm 0.00 in0.0 mm
07:15 PM 70.2°F21.2°C 48.4°F9.1°C 46% Calm Calm 7.6 mph12.2 kmh 30.01 in1016.3 mb 0.00 in0.0 mm 0.00 in0.0 mm 0.00 in0.0 mm
07:30 PM 69.3°F20.7°C 48.2°F9.0°C 47% Calm Calm 10.5 mph16.9 kmh 30.01 in1016.3 mb 0.00 in0.0 mm 0.00 in0.0 mm 0.00 in0.0 mm
07:45 PM 68.4°F20.2°C 47.3°F8.5°C 47% 2.9 mph NNE4.7 kmh NNE 8.2 mph13.2 kmh 30.01 in1016.3 mb 0.00 in0.0 mm 0.00 in0.0 mm 0.00 in0.0 mm
08:00 PM 67.5°F19.7°C 47.1°F8.4°C 48% Calm Calm 7.0 mph11.3 kmh 30.04 in1017.3 mb 0.00 in0.0 mm 0.00 in0.0 mm 0.00 in0.0 mm
08:15 PM 66.7°F19.3°C 47.0°F8.3°C 49% Calm Calm -- 30.04 in1017.3 mb 0.00 in0.0 mm 0.00 in0.0 mm 0.00 in0.0 mm
08:30 PM 66.0°F18.9°C 46.8°F8.2°C 50% 4.7 mph N7.6 kmh N 6.4 mph10.3 kmh 30.04 in1017.3 mb 0.00 in0.0 mm 0.00 in0.0 mm 0.00 in0.0 mm
08:45 PM 65.7°F18.7°C 46.5°F8.1°C 50% Calm Calm -- 30.07 in1018.3 mb 0.00 in0.0 mm 0.00 in0.0 mm 0.00 in0.0 mm
09:00 PM 64.6°F18.1°C 46.6°F8.1°C 52% Calm Calm -- 30.07 in1018.3 mb 0.00 in0.0 mm 0.00 in0.0 mm 0.00 in0.0 mm
09:15 PM 64.4°F18.0°C 45.9°F7.7°C 51% 2.9 mph NNW4.7 kmh NNW 6.4 mph10.3 kmh 30.07 in1018.3 mb 0.00 in0.0 mm 0.00 in0.0 mm 0.00 in0.0 mm
09:30 PM 64.4°F18.0°C 45.3°F7.4°C 50% Calm Calm 6.4 mph10.3 kmh 30.07 in1018.3 mb 0.00 in0.0 mm 0.00 in0.0 mm 0.00 in0.0 mm
09:45 PM 64.6°F18.1°C 45.0°F7.2°C 49% Calm Calm 7.6 mph12.2 kmh 30.09 in1019.0 mb 0.00 in0.0 mm 0.00 in0.0 mm 0.00 in0.0 mm
10:00 PM 64.4°F18.0°C 44.8°F7.1°C 49% 2.9 mph NNW4.7 kmh NNW 8.2 mph13.2 kmh 30.09 in1019.0 mb 0.00 in0.0 mm 0.00 in0.0 mm 0.00 in0.0 mm
10:15 PM 64.0°F17.8°C 44.5°F6.9°C 49% Calm Calm -- 30.09 in1019.0 mb 0.00 in0.0 mm 0.00 in0.0 mm 0.00 in0.0 mm
10:30 PM 63.5°F17.5°C 44.5°F6.9°C 50% Calm Calm -- 30.12 in1020.0 mb 0.00 in0.0 mm 0.00 in0.0 mm 0.00 in0.0 mm
10:45 PM 63.0°F17.2°C 44.5°F6.9°C 51% Calm Calm -- 30.12 in1020.0 mb 0.00 in0.0 mm 0.00 in0.0 mm 0.00 in0.0 mm
11:00 PM 62.1°F16.7°C 44.7°F7.1°C 53% Calm Calm -- 30.12 in1020.0 mb 0.00 in0.0 mm 0.00 in0.0 mm 0.00 in0.0 mm
11:15 PM 61.9°F16.6°C 45.0°F7.2°C 54% Calm Calm 5.9 mph9.5 kmh 30.12 in1020.0 mb 0.00 in0.0 mm 0.00 in0.0 mm 0.00 in0.0 mm
11:30 PM 62.2°F16.8°C 44.9°F7.2°C 53% 4.1 mph NW6.6 kmh NW 7.0 mph11.3 kmh 30.12 in1020.0 mb 0.00 in0.0 mm 0.00 in0.0 mm 0.00 in0.0 mm
11:45 PM 62.4°F16.9°C 44.6°F7.0°C 52% Calm Calm -- 30.12 in1020.0 mb 0.00 in0.0 mm 0.00 in0.0 mm 0.00 in0.0 mm